sensor_id;sensor_type;location;lat;lon;timestamp;temperature;humidity
4056;DHT22;2043;52.184;8.690;2023-04-08T00:00:09;6.80;93.10
4056;DHT22;2043;52.184;8.690;2023-04-08T00:02:36;6.80;93.20
4056;DHT22;2043;52.184;8.690;2023-04-08T00:05:03;6.70;93.50
4056;DHT22;2043;52.184;8.690;2023-04-08T00:07:30;6.80;93.90
4056;DHT22;2043;52.184;8.690;2023-04-08T00:09:57;6.80;93.90
4056;DHT22;2043;52.184;8.690;2023-04-08T00:14:51;6.80;94.20
4056;DHT22;2043;52.184;8.690;2023-04-08T00:17:18;6.80;94.10
4056;DHT22;2043;52.184;8.690;2023-04-08T00:19:45;6.80;94.20
4056;DHT22;2043;52.184;8.690;2023-04-08T00:22:12;6.90;94.00
4056;DHT22;2043;52.184;8.690;2023-04-08T00:24:38;6.90;94.20
4056;DHT22;2043;52.184;8.690;2023-04-08T00:27:06;6.90;94.40
4056;DHT22;2043;52.184;8.690;2023-04-08T00:29:32;6.90;94.40
4056;DHT22;2043;52.184;8.690;2023-04-08T00:31:59;6.90;94.70
4056;DHT22;2043;52.184;8.690;2023-04-08T00:34:26;6.90;94.70
4056;DHT22;2043;52.184;8.690;2023-04-08T00:36:53;6.90;95.00
4056;DHT22;2043;52.184;8.690;2023-04-08T00:39:19;7.00;95.20
4056;DHT22;2043;52.184;8.690;2023-04-08T00:41:46;7.00;95.40
4056;DHT22;2043;52.184;8.690;2023-04-08T00:44:13;7.00;95.50
4056;DHT22;2043;52.184;8.690;2023-04-08T00:46:40;7.10;95.60
4056;DHT22;2043;52.184;8.690;2023-04-08T00:49:07;7.10;95.70
4056;DHT22;2043;52.184;8.690;2023-04-08T00:51:36;7.00;95.90
4056;DHT22;2043;52.184;8.690;2023-04-08T00:54:04;7.00;96.00
4056;DHT22;2043;52.184;8.690;2023-04-08T00:56:32;7.00;96.20
4056;DHT22;2043;52.184;8.690;2023-04-08T00:59:00;7.10;96.20
4056;DHT22;2043;52.184;8.690;2023-04-08T01:07:05;7.10;96.50
4056;DHT22;2043;52.184;8.690;2023-04-08T01:09:37;7.10;96.70
4056;DHT22;2043;52.184;8.690;2023-04-08T01:12:06;7.10;96.80
4056;DHT22;2043;52.184;8.690;2023-04-08T01:14:39;7.10;96.90
4056;DHT22;2043;52.184;8.690;2023-04-08T01:17:07;7.10;97.10
4056;DHT22;2043;52.184;8.690;2023-04-08T01:19:38;7.10;97.60
4056;DHT22;2043;52.184;8.690;2023-04-08T01:22:23;7.20;97.40
4056;DHT22;2043;52.184;8.690;2023-04-08T01:24:58;7.20;97.60
4056;DHT22;2043;52.184;8.690;2023-04-08T01:27:27;7.20;97.70
4056;DHT22;2043;52.184;8.690;2023-04-08T01:29:57;7.20;97.70
4056;DHT22;2043;52.184;8.690;2023-04-08T01:32:25;7.20;97.90
4056;DHT22;2043;52.184;8.690;2023-04-08T01:34:53;7.20;97.90
4056;DHT22;2043;52.184;8.690;2023-04-08T01:37:24;7.30;97.60
4056;DHT22;2043;52.184;8.690;2023-04-08T01:39:54;7.20;97.90
4056;DHT22;2043;52.184;8.690;2023-04-08T01:42:25;7.30;97.90
4056;DHT22;2043;52.184;8.690;2023-04-08T01:44:55;7.30;97.80
4056;DHT22;2043;52.184;8.690;2023-04-08T01:47:23;7.30;98.00
4056;DHT22;2043;52.184;8.690;2023-04-08T01:49:51;7.20;98.20
4056;DHT22;2043;52.184;8.690;2023-04-08T01:52:22;7.20;98.40
4056;DHT22;2043;52.184;8.690;2023-04-08T01:54:48;7.20;98.40
4056;DHT22;2043;52.184;8.690;2023-04-08T01:57:22;7.20;98.30
4056;DHT22;2043;52.184;8.690;2023-04-08T01:59:51;7.20;98.50
4056;DHT22;2043;52.184;8.690;2023-04-08T02:02:24;7.20;98.50
4056;DHT22;2043;52.184;8.690;2023-04-08T02:04:56;7.20;98.50
4056;DHT22;2043;52.184;8.690;2023-04-08T02:07:23;7.10;98.80
4056;DHT22;2043;52.184;8.690;2023-04-08T02:09:50;7.00;99.00
4056;DHT22;2043;52.184;8.690;2023-04-08T02:12:17;6.90;99.60
4056;DHT22;2043;52.184;8.690;2023-04-08T02:14:44;7.00;99.70
4056;DHT22;2043;52.184;8.690;2023-04-08T02:17:18;7.00;99.80
4056;DHT22;2043;52.184;8.690;2023-04-08T02:19:52;7.00;99.30
4056;DHT22;2043;52.184;8.690;2023-04-08T02:25:25;7.20;99.30
4056;DHT22;2043;52.184;8.690;2023-04-08T02:27:54;7.20;99.30
4056;DHT22;2043;52.184;8.690;2023-04-08T02:30:24;7.20;99.10
4056;DHT22;2043;52.184;8.690;2023-04-08T02:32:53;7.20;99.00
4056;DHT22;2043;52.184;8.690;2023-04-08T02:35:20;7.20;99.00
4056;DHT22;2043;52.184;8.690;2023-04-08T02:37:47;7.20;99.00
4056;DHT22;2043;52.184;8.690;2023-04-08T02:42:52;7.20;99.30
4056;DHT22;2043;52.184;8.690;2023-04-08T02:45:19;7.10;99.30
4056;DHT22;2043;52.184;8.690;2023-04-08T02:47:47;7.10;99.40
4056;DHT22;2043;52.184;8.690;2023-04-08T02:50:13;7.10;99.50
4056;DHT22;2043;52.184;8.690;2023-04-08T02:52:40;7.10;99.60
4056;DHT22;2043;52.184;8.690;2023-04-08T02:55:08;7.10;99.40
4056;DHT22;2043;52.184;8.690;2023-04-08T02:57:39;7.20;99.50
4056;DHT22;2043;52.184;8.690;2023-04-08T03:00:07;7.10;99.40
4056;DHT22;2043;52.184;8.690;2023-04-08T03:02:34;7.20;99.40
4056;DHT22;2043;52.184;8.690;2023-04-08T03:05:01;7.20;99.50
4056;DHT22;2043;52.184;8.690;2023-04-08T03:07:30;7.10;99.50
4056;DHT22;2043;52.184;8.690;2023-04-08T03:09:56;7.00;99.70
4056;DHT22;2043;52.184;8.690;2023-04-08T03:12:23;7.00;99.80
4056;DHT22;2043;52.184;8.690;2023-04-08T03:14:52;6.90;99.90
4056;DHT22;2043;52.184;8.690;2023-04-08T03:17:20;6.80;99.90
4056;DHT22;2043;52.184;8.690;2023-04-08T03:19:46;6.90;99.90
4056;DHT22;2043;52.184;8.690;2023-04-08T03:22:13;6.80;99.90
4056;DHT22;2043;52.184;8.690;2023-04-08T03:24:40;6.90;99.90
4056;DHT22;2043;52.184;8.690;2023-04-08T03:27:07;6.80;99.90
4056;DHT22;2043;52.184;8.690;2023-04-08T03:32:01;6.80;99.90
4056;DHT22;2043;52.184;8.690;2023-04-08T03:34:28;6.80;99.90
4056;DHT22;2043;52.184;8.690;2023-04-08T03:36:55;6.60;99.90
4056;DHT22;2043;52.184;8.690;2023-04-08T03:39:21;6.60;99.90
4056;DHT22;2043;52.184;8.690;2023-04-08T03:41:48;6.60;99.90
4056;DHT22;2043;52.184;8.690;2023-04-08T03:44:15;6.70;99.90
4056;DHT22;2043;52.184;8.690;2023-04-08T03:46:42;6.60;99.90
4056;DHT22;2043;52.184;8.690;2023-04-08T03:49:08;6.50;99.90
4056;DHT22;2043;52.184;8.690;2023-04-08T03:51:35;6.50;99.90
4056;DHT22;2043;52.184;8.690;2023-04-08T03:54:02;6.60;99.90
4056;DHT22;2043;52.184;8.690;2023-04-08T03:56:29;6.60;99.90
4056;DHT22;2043;52.184;8.690;2023-04-08T03:58:55;6.60;99.90
4056;DHT22;2043;52.184;8.690;2023-04-08T04:01:24;6.60;99.90
4056;DHT22;2043;52.184;8.690;2023-04-08T04:03:51;6.60;99.90
4056;DHT22;2043;52.184;8.690;2023-04-08T04:06:18;6.60;99.90
4056;DHT22;2043;52.184;8.690;2023-04-08T04:08:44;6.50;99.90
4056;DHT22;2043;52.184;8.690;2023-04-08T04:11:11;6.50;99.90
4056;DHT22;2043;52.184;8.690;2023-04-08T04:13:38;6.50;99.90
4056;DHT22;2043;52.184;8.690;2023-04-08T04:16:05;6.50;99.90
4056;DHT22;2043;52.184;8.690;2023-04-08T04:18:32;6.50;99.90
4056;DHT22;2043;52.184;8.690;2023-04-08T04:20:59;6.60;99.90
4056;DHT22;2043;52.184;8.690;2023-04-08T04:23:25;6.60;99.90
4056;DHT22;2043;52.184;8.690;2023-04-08T04:25:52;6.50;99.90
4056;DHT22;2043;52.184;8.690;2023-04-08T04:28:19;6.50;99.90
4056;DHT22;2043;52.184;8.690;2023-04-08T04:30:46;6.50;99.90
4056;DHT22;2043;52.184;8.690;2023-04-08T04:33:13;6.40;99.90
4056;DHT22;2043;52.184;8.690;2023-04-08T04:38:06;6.40;99.90
4056;DHT22;2043;52.184;8.690;2023-04-08T04:40:38;6.40;99.90
4056;DHT22;2043;52.184;8.690;2023-04-08T04:43:05;6.30;99.90
4056;DHT22;2043;52.184;8.690;2023-04-08T04:45:31;6.40;99.90
4056;DHT22;2043;52.184;8.690;2023-04-08T04:47:58;6.40;99.90
4056;DHT22;2043;52.184;8.690;2023-04-08T04:50:25;6.40;99.90
4056;DHT22;2043;52.184;8.690;2023-04-08T04:52:52;6.40;99.90
4056;DHT22;2043;52.184;8.690;2023-04-08T04:55:19;6.40;99.90
4056;DHT22;2043;52.184;8.690;2023-04-08T04:57:48;6.40;99.90
4056;DHT22;2043;52.184;8.690;2023-04-08T05:00:14;6.40;99.90
4056;DHT22;2043;52.184;8.690;2023-04-08T05:02:42;6.40;99.90
4056;DHT22;2043;52.184;8.690;2023-04-08T05:07:37;6.40;99.90
4056;DHT22;2043;52.184;8.690;2023-04-08T05:10:05;6.40;99.90
4056;DHT22;2043;52.184;8.690;2023-04-08T05:12:32;6.40;99.90
4056;DHT22;2043;52.184;8.690;2023-04-08T05:14:59;6.40;99.90
4056;DHT22;2043;52.184;8.690;2023-04-08T05:19:53;6.40;99.90
4056;DHT22;2043;52.184;8.690;2023-04-08T05:22:20;6.40;99.90
4056;DHT22;2043;52.184;8.690;2023-04-08T05:24:46;6.40;99.90
4056;DHT22;2043;52.184;8.690;2023-04-08T05:27:13;6.40;99.90
4056;DHT22;2043;52.184;8.690;2023-04-08T05:29:40;6.50;99.90
4056;DHT22;2043;52.184;8.690;2023-04-08T05:32:07;6.40;99.90
4056;DHT22;2043;52.184;8.690;2023-04-08T05:34:34;6.40;99.90
4056;DHT22;2043;52.184;8.690;2023-04-08T05:37:00;6.20;99.90
4056;DHT22;2043;52.184;8.690;2023-04-08T05:39:27;6.20;99.90
4056;DHT22;2043;52.184;8.690;2023-04-08T05:41:54;6.30;99.90
4056;DHT22;2043;52.184;8.690;2023-04-08T05:44:21;6.30;99.90
4056;DHT22;2043;52.184;8.690;2023-04-08T05:46:47;6.30;99.90
4056;DHT22;2043;52.184;8.690;2023-04-08T05:49:14;6.30;99.90
4056;DHT22;2043;52.184;8.690;2023-04-08T05:51:42;6.30;99.90
4056;DHT22;2043;52.184;8.690;2023-04-08T05:54:09;6.30;99.90
4056;DHT22;2043;52.184;8.690;2023-04-08T05:56:36;6.40;99.90
4056;DHT22;2043;52.184;8.690;2023-04-08T05:59:03;6.40;99.90
4056;DHT22;2043;52.184;8.690;2023-04-08T06:01:29;6.40;99.90
4056;DHT22;2043;52.184;8.690;2023-04-08T06:03:56;6.50;99.90
4056;DHT22;2043;52.184;8.690;2023-04-08T06:06:23;6.50;99.90
4056;DHT22;2043;52.184;8.690;2023-04-08T06:11:18;6.40;99.90
4056;DHT22;2043;52.184;8.690;2023-04-08T06:13:45;6.50;99.90
4056;DHT22;2043;52.184;8.690;2023-04-08T06:16:16;6.60;99.90
4056;DHT22;2043;52.184;8.690;2023-04-08T06:18:46;6.60;99.90
4056;DHT22;2043;52.184;8.690;2023-04-08T06:21:14;6.70;99.90
4056;DHT22;2043;52.184;8.690;2023-04-08T06:26:08;6.80;99.90
4056;DHT22;2043;52.184;8.690;2023-04-08T06:28:34;6.60;99.90
4056;DHT22;2043;52.184;8.690;2023-04-08T06:31:01;6.60;99.90
4056;DHT22;2043;52.184;8.690;2023-04-08T06:33:28;6.60;99.90
4056;DHT22;2043;52.184;8.690;2023-04-08T06:36:05;6.70;99.90
4056;DHT22;2043;52.184;8.690;2023-04-08T06:38:33;6.70;99.90
4056;DHT22;2043;52.184;8.690;2023-04-08T06:41:03;6.70;99.90
4056;DHT22;2043;52.184;8.690;2023-04-08T06:43:31;6.80;99.90
4056;DHT22;2043;52.184;8.690;2023-04-08T06:45:58;6.80;99.90
4056;DHT22;2043;52.184;8.690;2023-04-08T06:48:25;6.80;99.90
4056;DHT22;2043;52.184;8.690;2023-04-08T06:50:57;6.80;99.90
4056;DHT22;2043;52.184;8.690;2023-04-08T06:53:25;6.80;99.90
4056;DHT22;2043;52.184;8.690;2023-04-08T06:55:52;6.90;99.90
4056;DHT22;2043;52.184;8.690;2023-04-08T06:58:19;6.90;99.90
4056;DHT22;2043;52.184;8.690;2023-04-08T07:00:45;6.80;99.90
4056;DHT22;2043;52.184;8.690;2023-04-08T07:03:13;6.90;99.90
4056;DHT22;2043;52.184;8.690;2023-04-08T07:05:39;6.90;99.90
4056;DHT22;2043;52.184;8.690;2023-04-08T07:08:08;6.90;99.90
4056;DHT22;2043;52.184;8.690;2023-04-08T07:10:35;7.00;99.90
4056;DHT22;2043;52.184;8.690;2023-04-08T07:13:02;7.00;99.90
4056;DHT22;2043;52.184;8.690;2023-04-08T07:15:29;7.00;99.90
4056;DHT22;2043;52.184;8.690;2023-04-08T07:17:56;7.00;99.90
4056;DHT22;2043;52.184;8.690;2023-04-08T07:20:25;7.10;99.90
4056;DHT22;2043;52.184;8.690;2023-04-08T07:22:51;7.00;99.90
4056;DHT22;2043;52.184;8.690;2023-04-08T07:25:18;7.10;99.90
4056;DHT22;2043;52.184;8.690;2023-04-08T07:27:45;7.10;99.90
4056;DHT22;2043;52.184;8.690;2023-04-08T07:30:12;7.00;99.90
4056;DHT22;2043;52.184;8.690;2023-04-08T07:32:38;7.00;99.90
4056;DHT22;2043;52.184;8.690;2023-04-08T07:35:06;7.10;99.90
4056;DHT22;2043;52.184;8.690;2023-04-08T07:37:33;7.10;99.90
4056;DHT22;2043;52.184;8.690;2023-04-08T07:39:59;7.10;99.90
4056;DHT22;2043;52.184;8.690;2023-04-08T07:42:26;7.20;99.90
4056;DHT22;2043;52.184;8.690;2023-04-08T07:44:54;7.20;99.90
4056;DHT22;2043;52.184;8.690;2023-04-08T07:47:21;7.30;99.90
4056;DHT22;2043;52.184;8.690;2023-04-08T07:49:48;7.40;99.90
4056;DHT22;2043;52.184;8.690;2023-04-08T07:52:15;7.40;99.90
4056;DHT22;2043;52.184;8.690;2023-04-08T07:54:42;7.40;99.90
4056;DHT22;2043;52.184;8.690;2023-04-08T07:57:08;7.50;99.90
4056;DHT22;2043;52.184;8.690;2023-04-08T07:59:35;7.50;99.90
4056;DHT22;2043;52.184;8.690;2023-04-08T08:04:30;7.40;99.90
4056;DHT22;2043;52.184;8.690;2023-04-08T08:06:57;7.40;99.90
4056;DHT22;2043;52.184;8.690;2023-04-08T08:09:24;7.40;99.90
4056;DHT22;2043;52.184;8.690;2023-04-08T08:11:51;7.40;99.90
4056;DHT22;2043;52.184;8.690;2023-04-08T08:14:17;7.40;99.90
4056;DHT22;2043;52.184;8.690;2023-04-08T08:16:44;7.50;99.90
4056;DHT22;2043;52.184;8.690;2023-04-08T08:19:11;7.50;99.90
4056;DHT22;2043;52.184;8.690;2023-04-08T08:21:39;7.50;99.90
4056;DHT22;2043;52.184;8.690;2023-04-08T08:24:06;7.60;99.90
4056;DHT22;2043;52.184;8.690;2023-04-08T08:26:34;7.60;99.90
4056;DHT22;2043;52.184;8.690;2023-04-08T08:29:03;7.80;99.90
4056;DHT22;2043;52.184;8.690;2023-04-08T08:31:30;7.90;99.90
4056;DHT22;2043;52.184;8.690;2023-04-08T08:33:57;8.00;99.90
4056;DHT22;2043;52.184;8.690;2023-04-08T08:36:23;8.10;99.90
4056;DHT22;2043;52.184;8.690;2023-04-08T08:38:50;8.10;99.90
4056;DHT22;2043;52.184;8.690;2023-04-08T08:41:21;8.10;99.90
4056;DHT22;2043;52.184;8.690;2023-04-08T08:43:48;8.10;99.90
4056;DHT22;2043;52.184;8.690;2023-04-08T08:46:16;8.00;99.90
4056;DHT22;2043;52.184;8.690;2023-04-08T08:48:45;8.00;99.90
4056;DHT22;2043;52.184;8.690;2023-04-08T08:51:12;8.00;99.90
4056;DHT22;2043;52.184;8.690;2023-04-08T08:53:39;8.00;99.90
4056;DHT22;2043;52.184;8.690;2023-04-08T08:56:11;8.10;99.90
4056;DHT22;2043;52.184;8.690;2023-04-08T08:58:40;8.10;99.90
4056;DHT22;2043;52.184;8.690;2023-04-08T09:06:40;8.30;99.90
4056;DHT22;2043;52.184;8.690;2023-04-08T09:09:07;8.30;99.90
4056;DHT22;2043;52.184;8.690;2023-04-08T09:11:41;8.30;99.90
4056;DHT22;2043;52.184;8.690;2023-04-08T09:14:18;8.30;99.90
4056;DHT22;2043;52.184;8.690;2023-04-08T09:16:45;8.40;99.90
4056;DHT22;2043;52.184;8.690;2023-04-08T09:19:12;8.50;99.90
4056;DHT22;2043;52.184;8.690;2023-04-08T09:21:39;8.60;99.90
4056;DHT22;2043;52.184;8.690;2023-04-08T09:24:07;8.50;99.90
4056;DHT22;2043;52.184;8.690;2023-04-08T09:26:35;8.50;99.90
4056;DHT22;2043;52.184;8.690;2023-04-08T09:29:05;8.50;99.90
4056;DHT22;2043;52.184;8.690;2023-04-08T09:31:55;8.50;99.90
4056;DHT22;2043;52.184;8.690;2023-04-08T09:34:24;8.60;99.90
4056;DHT22;2043;52.184;8.690;2023-04-08T09:36:52;8.50;99.90
4056;DHT22;2043;52.184;8.690;2023-04-08T09:39:19;8.50;99.90
4056;DHT22;2043;52.184;8.690;2023-04-08T09:41:50;8.50;99.90
4056;DHT22;2043;52.184;8.690;2023-04-08T09:44:19;8.60;99.90
4056;DHT22;2043;52.184;8.690;2023-04-08T09:57:09;8.80;99.90
4056;DHT22;2043;52.184;8.690;2023-04-08T09:59:47;8.70;99.90
4056;DHT22;2043;52.184;8.690;2023-04-08T10:02:18;8.60;99.90
4056;DHT22;2043;52.184;8.690;2023-04-08T10:04:51;8.50;99.90
4056;DHT22;2043;52.184;8.690;2023-04-08T10:07:19;8.50;99.90
4056;DHT22;2043;52.184;8.690;2023-04-08T10:09:47;8.50;99.90
4056;DHT22;2043;52.184;8.690;2023-04-08T10:12:15;8.60;99.90
4056;DHT22;2043;52.184;8.690;2023-04-08T10:17:47;8.70;99.90
4056;DHT22;2043;52.184;8.690;2023-04-08T10:20:39;8.70;99.90
4056;DHT22;2043;52.184;8.690;2023-04-08T10:25:34;8.80;99.90
4056;DHT22;2043;52.184;8.690;2023-04-08T10:28:22;8.70;99.90
4056;DHT22;2043;52.184;8.690;2023-04-08T10:30:56;8.80;99.90
4056;DHT22;2043;52.184;8.690;2023-04-08T10:33:30;8.90;99.90
4056;DHT22;2043;52.184;8.690;2023-04-08T10:38:25;9.00;99.90
4056;DHT22;2043;52.184;8.690;2023-04-08T10:40:53;9.00;99.60
4056;DHT22;2043;52.184;8.690;2023-04-08T10:43:20;9.00;99.80
4056;DHT22;2043;52.184;8.690;2023-04-08T10:45:48;8.90;99.80
4056;DHT22;2043;52.184;8.690;2023-04-08T10:48:20;9.00;99.90
4056;DHT22;2043;52.184;8.690;2023-04-08T10:50:58;9.10;99.70
4056;DHT22;2043;52.184;8.690;2023-04-08T10:56:10;9.20;99.50
4056;DHT22;2043;52.184;8.690;2023-04-08T10:58:52;9.30;99.20
4056;DHT22;2043;52.184;8.690;2023-04-08T11:01:22;9.40;98.80
4056;DHT22;2043;52.184;8.690;2023-04-08T11:03:49;9.40;98.80
4056;DHT22;2043;52.184;8.690;2023-04-08T11:06:17;9.30;98.60
4056;DHT22;2043;52.184;8.690;2023-04-08T11:08:45;9.40;99.10
4056;DHT22;2043;52.184;8.690;2023-04-08T11:11:13;9.40;98.80
4056;DHT22;2043;52.184;8.690;2023-04-08T11:13:42;9.50;98.70
4056;DHT22;2043;52.184;8.690;2023-04-08T11:16:20;9.60;98.70
4056;DHT22;2043;52.184;8.690;2023-04-08T11:18:49;9.70;98.80
4056;DHT22;2043;52.184;8.690;2023-04-08T11:21:16;9.70;98.20
4056;DHT22;2043;52.184;8.690;2023-04-08T11:23:43;9.70;97.80
4056;DHT22;2043;52.184;8.690;2023-04-08T11:26:10;9.70;98.10
4056;DHT22;2043;52.184;8.690;2023-04-08T11:28:37;9.70;98.30
4056;DHT22;2043;52.184;8.690;2023-04-08T11:31:04;9.70;98.10
4056;DHT22;2043;52.184;8.690;2023-04-08T11:33:32;9.80;97.80
4056;DHT22;2043;52.184;8.690;2023-04-08T11:36:01;9.80;97.80
4056;DHT22;2043;52.184;8.690;2023-04-08T11:38:30;9.80;98.40
4056;DHT22;2043;52.184;8.690;2023-04-08T11:40:58;9.80;98.40
4056;DHT22;2043;52.184;8.690;2023-04-08T11:43:25;9.90;97.70
4056;DHT22;2043;52.184;8.690;2023-04-08T11:45:52;10.10;97.10
4056;DHT22;2043;52.184;8.690;2023-04-08T11:48:19;10.00;97.30
4056;DHT22;2043;52.184;8.690;2023-04-08T11:50:46;10.10;97.60
4056;DHT22;2043;52.184;8.690;2023-04-08T11:53:20;10.10;97.30
4056;DHT22;2043;52.184;8.690;2023-04-08T11:55:47;10.10;97.30
4056;DHT22;2043;52.184;8.690;2023-04-08T11:58:14;10.00;97.90
4056;DHT22;2043;52.184;8.690;2023-04-08T12:00:41;10.10;97.60
4056;DHT22;2043;52.184;8.690;2023-04-08T12:03:09;9.90;97.40
4056;DHT22;2043;52.184;8.690;2023-04-08T12:05:37;9.80;98.00
4056;DHT22;2043;52.184;8.690;2023-04-08T12:08:04;9.70;98.60
4056;DHT22;2043;52.184;8.690;2023-04-08T12:10:31;9.70;98.90
4056;DHT22;2043;52.184;8.690;2023-04-08T12:12:58;9.80;98.80
4056;DHT22;2043;52.184;8.690;2023-04-08T12:15:25;9.90;98.30
4056;DHT22;2043;52.184;8.690;2023-04-08T12:17:52;9.90;98.60
4056;DHT22;2043;52.184;8.690;2023-04-08T12:20:18;10.00;98.30
4056;DHT22;2043;52.184;8.690;2023-04-08T12:22:45;10.10;98.10
4056;DHT22;2043;52.184;8.690;2023-04-08T12:25:12;10.30;97.70
4056;DHT22;2043;52.184;8.690;2023-04-08T12:27:39;10.20;97.60
4056;DHT22;2043;52.184;8.690;2023-04-08T12:30:06;10.20;97.90
4056;DHT22;2043;52.184;8.690;2023-04-08T12:32:33;10.30;97.50
4056;DHT22;2043;52.184;8.690;2023-04-08T12:35:00;10.50;97.50
4056;DHT22;2043;52.184;8.690;2023-04-08T12:37:27;10.50;96.90
4056;DHT22;2043;52.184;8.690;2023-04-08T12:39:54;10.50;96.70
4056;DHT22;2043;52.184;8.690;2023-04-08T12:42:21;10.40;97.20
4056;DHT22;2043;52.184;8.690;2023-04-08T12:44:47;10.40;97.10
4056;DHT22;2043;52.184;8.690;2023-04-08T12:47:14;10.50;97.40
4056;DHT22;2043;52.184;8.690;2023-04-08T12:49:41;10.60;96.80
4056;DHT22;2043;52.184;8.690;2023-04-08T12:52:15;10.60;96.30
4056;DHT22;2043;52.184;8.690;2023-04-08T12:54:43;10.60;96.50
4056;DHT22;2043;52.184;8.690;2023-04-08T12:57:10;10.50;96.90
4056;DHT22;2043;52.184;8.690;2023-04-08T12:59:36;10.50;96.90
4056;DHT22;2043;52.184;8.690;2023-04-08T13:02:06;10.50;97.20
4056;DHT22;2043;52.184;8.690;2023-04-08T13:04:33;10.50;97.30
4056;DHT22;2043;52.184;8.690;2023-04-08T13:07:00;10.40;97.80
4056;DHT22;2043;52.184;8.690;2023-04-08T13:09:27;10.50;97.60
4056;DHT22;2043;52.184;8.690;2023-04-08T13:11:56;10.60;97.40
4056;DHT22;2043;52.184;8.690;2023-04-08T13:14:24;10.60;96.60
4056;DHT22;2043;52.184;8.690;2023-04-08T13:16:51;10.40;97.40
4056;DHT22;2043;52.184;8.690;2023-04-08T13:19:18;10.40;97.50
4056;DHT22;2043;52.184;8.690;2023-04-08T13:21:44;10.40;97.50
4056;DHT22;2043;52.184;8.690;2023-04-08T13:24:12;10.30;97.70
4056;DHT22;2043;52.184;8.690;2023-04-08T13:26:38;10.20;97.80
4056;DHT22;2043;52.184;8.690;2023-04-08T13:29:05;10.10;98.40
4056;DHT22;2043;52.184;8.690;2023-04-08T13:31:32;10.10;98.20
4056;DHT22;2043;52.184;8.690;2023-04-08T13:33:59;10.10;98.40
4056;DHT22;2043;52.184;8.690;2023-04-08T13:36:26;10.00;98.60
4056;DHT22;2043;52.184;8.690;2023-04-08T13:38:57;10.00;98.80
4056;DHT22;2043;52.184;8.690;2023-04-08T13:41:24;10.00;98.50
4056;DHT22;2043;52.184;8.690;2023-04-08T13:43:51;10.10;98.50
4056;DHT22;2043;52.184;8.690;2023-04-08T13:46:17;10.10;98.60
4056;DHT22;2043;52.184;8.690;2023-04-08T13:48:44;10.10;98.50
4056;DHT22;2043;52.184;8.690;2023-04-08T13:51:12;10.10;98.30
4056;DHT22;2043;52.184;8.690;2023-04-08T13:53:39;9.90;99.40
4056;DHT22;2043;52.184;8.690;2023-04-08T13:56:06;9.80;99.90
4056;DHT22;2043;52.184;8.690;2023-04-08T13:58:33;9.80;99.80
4056;DHT22;2043;52.184;8.690;2023-04-08T14:01:00;9.80;99.80
4056;DHT22;2043;52.184;8.690;2023-04-08T14:03:27;9.80;99.90
4056;DHT22;2043;52.184;8.690;2023-04-08T14:05:54;9.90;99.90
4056;DHT22;2043;52.184;8.690;2023-04-08T14:08:20;10.00;99.80
4056;DHT22;2043;52.184;8.690;2023-04-08T14:10:51;10.00;99.60
4056;DHT22;2043;52.184;8.690;2023-04-08T14:13:18;10.00;99.00
4056;DHT22;2043;52.184;8.690;2023-04-08T14:15:45;10.10;99.10
4056;DHT22;2043;52.184;8.690;2023-04-08T14:18:12;10.10;99.40
4056;DHT22;2043;52.184;8.690;2023-04-08T14:20:39;10.00;99.50
4056;DHT22;2043;52.184;8.690;2023-04-08T14:23:06;9.90;99.60
4056;DHT22;2043;52.184;8.690;2023-04-08T14:28:00;9.90;99.80
4056;DHT22;2043;52.184;8.690;2023-04-08T14:30:27;9.90;99.80
4056;DHT22;2043;52.184;8.690;2023-04-08T14:32:54;9.90;99.80
4056;DHT22;2043;52.184;8.690;2023-04-08T14:35:21;9.90;99.80
4056;DHT22;2043;52.184;8.690;2023-04-08T14:37:48;9.90;99.60
4056;DHT22;2043;52.184;8.690;2023-04-08T14:40:15;9.90;99.80
4056;DHT22;2043;52.184;8.690;2023-04-08T14:42:42;9.90;99.90
4056;DHT22;2043;52.184;8.690;2023-04-08T14:45:10;10.00;99.60
4056;DHT22;2043;52.184;8.690;2023-04-08T14:47:37;9.90;99.90
4056;DHT22;2043;52.184;8.690;2023-04-08T14:50:04;9.90;99.90
4056;DHT22;2043;52.184;8.690;2023-04-08T14:52:31;9.90;99.80
4056;DHT22;2043;52.184;8.690;2023-04-08T14:54:58;10.00;99.50
4056;DHT22;2043;52.184;8.690;2023-04-08T14:57:25;10.00;99.70
4056;DHT22;2043;52.184;8.690;2023-04-08T14:59:52;10.00;99.70
4056;DHT22;2043;52.184;8.690;2023-04-08T15:02:19;10.10;99.80
4056;DHT22;2043;52.184;8.690;2023-04-08T15:04:46;10.10;99.60
4056;DHT22;2043;52.184;8.690;2023-04-08T15:07:13;10.10;99.90
4056;DHT22;2043;52.184;8.690;2023-04-08T15:09:40;10.10;99.70
4056;DHT22;2043;52.184;8.690;2023-04-08T15:12:07;10.10;99.70
4056;DHT22;2043;52.184;8.690;2023-04-08T15:14:34;10.00;99.90
4056;DHT22;2043;52.184;8.690;2023-04-08T15:17:00;10.00;99.90
4056;DHT22;2043;52.184;8.690;2023-04-08T15:21:54;10.00;99.90
4056;DHT22;2043;52.184;8.690;2023-04-08T15:24:21;10.10;99.90
4056;DHT22;2043;52.184;8.690;2023-04-08T15:26:48;10.10;99.80
4056;DHT22;2043;52.184;8.690;2023-04-08T15:29:15;10.30;99.30
4056;DHT22;2043;52.184;8.690;2023-04-08T15:31:42;10.40;98.70
4056;DHT22;2043;52.184;8.690;2023-04-08T15:34:09;10.20;99.00
4056;DHT22;2043;52.184;8.690;2023-04-08T15:36:36;10.20;99.00
4056;DHT22;2043;52.184;8.690;2023-04-08T15:39:03;10.20;99.30
4056;DHT22;2043;52.184;8.690;2023-04-08T15:41:30;10.30;99.30
4056;DHT22;2043;52.184;8.690;2023-04-08T15:43:57;10.30;99.20
4056;DHT22;2043;52.184;8.690;2023-04-08T15:46:24;10.40;99.20
4056;DHT22;2043;52.184;8.690;2023-04-08T15:48:51;10.40;99.40
4056;DHT22;2043;52.184;8.690;2023-04-08T15:51:18;10.30;99.30
4056;DHT22;2043;52.184;8.690;2023-04-08T15:53:46;10.30;99.10
4056;DHT22;2043;52.184;8.690;2023-04-08T15:56:14;10.20;99.30
4056;DHT22;2043;52.184;8.690;2023-04-08T15:58:42;10.10;99.40
4056;DHT22;2043;52.184;8.690;2023-04-08T16:01:09;10.00;99.70
4056;DHT22;2043;52.184;8.690;2023-04-08T16:03:36;10.00;99.90
4056;DHT22;2043;52.184;8.690;2023-04-08T16:06:03;10.00;99.90
4056;DHT22;2043;52.184;8.690;2023-04-08T16:08:31;10.00;99.90
4056;DHT22;2043;52.184;8.690;2023-04-08T16:11:00;9.90;99.90
4056;DHT22;2043;52.184;8.690;2023-04-08T16:13:28;9.90;99.90
4056;DHT22;2043;52.184;8.690;2023-04-08T16:16:01;9.90;99.90
4056;DHT22;2043;52.184;8.690;2023-04-08T16:18:28;9.90;99.90
4056;DHT22;2043;52.184;8.690;2023-04-08T16:20:55;9.90;99.90
4056;DHT22;2043;52.184;8.690;2023-04-08T16:23:23;9.90;99.90
4056;DHT22;2043;52.184;8.690;2023-04-08T16:25:49;9.90;99.90
4056;DHT22;2043;52.184;8.690;2023-04-08T16:28:17;9.90;99.90
4056;DHT22;2043;52.184;8.690;2023-04-08T16:30:44;9.90;99.90
4056;DHT22;2043;52.184;8.690;2023-04-08T16:33:13;9.80;99.90
4056;DHT22;2043;52.184;8.690;2023-04-08T16:35:40;9.80;99.90
4056;DHT22;2043;52.184;8.690;2023-04-08T16:38:07;9.90;99.90
4056;DHT22;2043;52.184;8.690;2023-04-08T16:40:34;9.90;99.90
4056;DHT22;2043;52.184;8.690;2023-04-08T16:43:01;9.90;99.90
4056;DHT22;2043;52.184;8.690;2023-04-08T16:45:30;9.90;99.90
4056;DHT22;2043;52.184;8.690;2023-04-08T16:47:58;9.80;99.90
4056;DHT22;2043;52.184;8.690;2023-04-08T16:50:26;9.80;99.90
4056;DHT22;2043;52.184;8.690;2023-04-08T16:52:54;9.70;99.90
4056;DHT22;2043;52.184;8.690;2023-04-08T16:55:21;9.80;99.90
4056;DHT22;2043;52.184;8.690;2023-04-08T16:57:48;9.80;99.90
4056;DHT22;2043;52.184;8.690;2023-04-08T17:00:14;9.70;99.90
4056;DHT22;2043;52.184;8.690;2023-04-08T17:02:45;9.70;99.90
4056;DHT22;2043;52.184;8.690;2023-04-08T17:05:13;9.60;99.90
4056;DHT22;2043;52.184;8.690;2023-04-08T17:07:40;9.60;99.90
4056;DHT22;2043;52.184;8.690;2023-04-08T17:10:07;9.60;99.90
4056;DHT22;2043;52.184;8.690;2023-04-08T17:12:35;9.60;99.90
4056;DHT22;2043;52.184;8.690;2023-04-08T17:15:02;9.60;99.90
4056;DHT22;2043;52.184;8.690;2023-04-08T17:17:29;9.60;99.90
4056;DHT22;2043;52.184;8.690;2023-04-08T17:19:56;9.60;99.90